Main page
METAR-TAF:

METAR-TAF

Airports :

Burnet Municipal Airport

Burnet, Texas, United States

latitude: 30-44-26N, longitude: 098-14-07W, elevation: 1286 ft

Current weather observation

The report was made 48 minutes ago, at 08:53 UTC
Wind 3 mph from the South/Southwest
Temperature 75°F
Humidity 89%
Pressure 29.82 in. Hg
Visibility: 5 miles
Overcast at a height of 1100 ft
mist

METAR: KBMQ 190853Z AUTO 20003KT 5SM BR OVC011 24/22 A2982 RMK AO2 SLP079 T02390222 53005

Time: 04:41 (09:41 UTC)


TAF: missing

Weather observations and forecasts of more than 4000 airports (METAR and TAF reports).

The available stations are represented by yellow and red dots on the map.

Hover mouse over dot to see the name of the station.

Then click to see weather observations and forecasts.

To change the map : click on the green buttons with a black cross to zoom in, on the green button with a dash to zoom out, or on the green arrows for adjacent maps.


METAR-TAF: